createdAt,value
2018-01-15T00:00:34.257Z,2.00
2018-01-15T00:03:05.001Z,1.90
2018-01-15T00:05:36.344Z,2.00
2018-01-15T00:08:06.606Z,2.00
2018-01-15T00:10:38.203Z,2.00
2018-01-15T00:13:09.083Z,2.00
2018-01-15T00:15:39.869Z,2.00
2018-01-15T00:18:10.278Z,2.10
2018-01-15T00:20:41.808Z,2.10
2018-01-15T00:23:13.909Z,1.90
2018-01-15T00:25:44.968Z,1.90
2018-01-15T00:28:16.071Z,1.90
2018-01-15T00:30:47.541Z,0.90
2018-01-15T00:33:17.883Z,0.90
2018-01-15T00:35:48.150Z,1.10
2018-01-15T00:38:18.521Z,1.20
2018-01-15T00:40:49.213Z,1.40
2018-01-15T00:43:20.885Z,1.20
2018-01-15T00:45:52.403Z,1.00
2018-01-15T00:48:22.777Z,1.00
2018-01-15T00:50:53.017Z,0.90
2018-01-15T00:53:26.002Z,0.90
2018-01-15T00:55:57.081Z,0.80
2018-01-15T00:58:27.785Z,1.00
2018-01-15T01:00:58.836Z,1.00
2018-01-15T01:03:29.709Z,1.00
2018-01-15T01:06:00.597Z,1.20
2018-01-15T01:08:31.755Z,1.20
2018-01-15T01:11:02.356Z,1.10
2018-01-15T01:13:33.572Z,1.20
2018-01-15T01:16:04.888Z,1.20
2018-01-15T01:18:36.088Z,1.00
2018-01-15T01:21:07.011Z,0.80
2018-01-15T01:23:37.882Z,0.60
2018-01-15T01:26:08.937Z,0.50
2018-01-15T01:28:39.816Z,0.50
2018-01-15T01:31:10.867Z,0.50
2018-01-15T01:33:41.436Z,0.60
2018-01-15T01:36:12.464Z,0.70
2018-01-15T01:38:42.826Z,0.90
2018-01-15T01:41:13.888Z,1.10
2018-01-15T01:43:45.381Z,0.90
2018-01-15T01:46:16.538Z,0.70
2018-01-15T01:48:55.970Z,0.60
2018-01-15T01:51:27.681Z,0.50
2018-01-15T01:54:00.834Z,0.40
2018-01-15T01:56:36.874Z,0.50
2018-01-15T01:59:08.434Z,0.50
2018-01-15T02:01:39.494Z,0.50
2018-01-15T02:04:10.197Z,0.40
2018-01-15T02:06:40.912Z,0.30
2018-01-15T02:09:11.923Z,0.30
2018-01-15T02:11:42.676Z,0.50
2018-01-15T02:14:13.797Z,0.60
2018-01-15T02:16:45.289Z,0.50
2018-01-15T02:19:16.097Z,0.50
2018-01-15T02:21:47.650Z,0.60
2018-01-15T02:24:18.961Z,0.60
2018-01-15T02:26:49.418Z,0.50
2018-01-15T02:29:19.812Z,0.80
2018-01-15T02:31:53.661Z,0.80
2018-01-15T02:34:25.150Z,0.70
2018-01-15T02:36:55.925Z,0.60
2018-01-15T02:39:26.851Z,0.50
2018-01-15T02:41:57.368Z,0.40
2018-01-15T02:44:28.262Z,0.60
2018-01-15T02:47:00.379Z,0.60
2018-01-15T02:49:34.265Z,0.60
2018-01-15T02:52:05.608Z,0.80
2018-01-15T02:54:36.573Z,0.70
2018-01-15T02:57:07.239Z,0.70
2018-01-15T02:59:39.145Z,0.60
2018-01-15T03:02:10.538Z,0.50
2018-01-15T03:04:40.946Z,0.50
2018-01-15T03:07:15.037Z,0.50
2018-01-15T03:09:45.840Z,0.40
2018-01-15T03:12:17.173Z,0.60
2018-01-15T03:14:48.588Z,0.50
2018-01-15T03:17:19.614Z,0.40
2018-01-15T03:19:50.899Z,0.60
2018-01-15T03:22:21.324Z,0.70
2018-01-15T03:24:52.852Z,0.70
2018-01-15T03:27:24.065Z,0.80
2018-01-15T03:29:55.066Z,0.70
2018-01-15T03:32:26.256Z,0.60
2018-01-15T03:34:57.215Z,0.40
2018-01-15T03:37:28.531Z,0.40
2018-01-15T03:39:58.876Z,0.40
2018-01-15T03:42:30.540Z,0.40
2018-01-15T03:45:00.892Z,0.40
2018-01-15T03:47:31.123Z,0.40
2018-01-15T03:50:01.403Z,0.60
2018-01-15T03:52:33.301Z,0.90
2018-01-15T03:55:04.557Z,0.90
2018-01-15T03:57:35.236Z,0.90
2018-01-15T04:00:05.919Z,1.00
2018-01-15T04:02:37.272Z,0.90
2018-01-15T04:05:09.218Z,1.10
2018-01-15T04:07:39.952Z,1.00
2018-01-15T04:10:10.284Z,1.20
2018-01-15T04:12:40.444Z,1.20
2018-01-15T04:15:11.466Z,1.20
2018-01-15T04:17:42.041Z,0.90
2018-01-15T04:20:13.498Z,1.10
2018-01-15T04:22:44.244Z,1.00
2018-01-15T04:25:14.920Z,1.20
2018-01-15T04:27:45.981Z,1.30
2018-01-15T04:30:18.010Z,1.30
2018-01-15T04:32:48.725Z,1.10
2018-01-15T04:35:23.543Z,1.10
2018-01-15T04:37:55.337Z,1.20
2018-01-15T04:40:27.172Z,1.30
2018-01-15T04:42:58.650Z,1.30
2018-01-15T04:45:29.581Z,1.30
2018-01-15T04:48:01.101Z,1.20
2018-01-15T04:50:33.211Z,0.70
2018-01-15T04:53:07.244Z,0.70
2018-01-15T04:55:37.877Z,0.90
2018-01-15T04:58:08.542Z,0.90
2018-01-15T05:00:40.052Z,0.70
2018-01-15T05:03:10.748Z,0.70
2018-01-15T05:05:41.449Z,0.90
2018-01-15T05:08:12.851Z,0.60
2018-01-15T05:10:44.292Z,0.50
2018-01-15T05:13:15.784Z,0.40
2018-01-15T05:15:47.089Z,0.70
2018-01-15T05:18:20.507Z,0.50
2018-01-15T05:20:51.232Z,0.30
2018-01-15T05:23:22.270Z,0.20
2018-01-15T05:25:53.016Z,0.20
2018-01-15T05:28:23.757Z,0.30
2018-01-15T05:30:54.084Z,0.50
2018-01-15T05:33:24.736Z,0.60
2018-01-15T05:35:55.881Z,0.60
2018-01-15T05:38:26.862Z,0.60
2018-01-15T05:41:00.817Z,0.60
2018-01-15T05:43:31.809Z,0.60
2018-01-15T05:46:02.229Z,0.70
2018-01-15T05:48:34.816Z,0.60
2018-01-15T05:51:05.380Z,0.50
2018-01-15T05:53:35.490Z,0.60
2018-01-15T05:56:06.071Z,0.80
2018-01-15T05:58:37.525Z,0.80
2018-01-15T06:01:08.256Z,0.80
2018-01-15T06:03:39.317Z,0.80
2018-01-15T06:06:11.286Z,0.90
2018-01-15T06:08:42.685Z,0.60
2018-01-15T06:11:14.425Z,0.50
2018-01-15T06:13:48.255Z,0.50
2018-01-15T06:16:18.961Z,0.60
2018-01-15T06:18:49.756Z,0.80
2018-01-15T06:21:20.515Z,1.00
2018-01-15T06:23:51.606Z,1.20
2018-01-15T06:26:23.112Z,1.20
2018-01-15T06:29:00.254Z,1.30
2018-01-15T06:35:07.499Z,0.90
2018-01-15T06:37:38.241Z,0.90
2018-01-15T06:41:29.703Z,1.10
2018-01-15T06:44:02.146Z,1.00
2018-01-15T06:46:34.371Z,1.20
2018-01-15T06:49:07.559Z,1.20
2018-01-15T06:51:38.564Z,1.40
2018-01-15T06:54:22.589Z,1.40
2018-01-15T06:56:55.441Z,1.40
2018-01-15T06:59:45.878Z,1.50
2018-01-15T07:03:46.499Z,1.20
2018-01-15T07:06:18.106Z,1.10
2018-01-15T07:08:50.217Z,0.70
2018-01-15T07:11:22.085Z,0.80
2018-01-15T07:16:41.655Z,1.20
2018-01-15T07:19:13.581Z,1.20
2018-01-15T07:21:45.284Z,1.40
2018-01-15T07:24:17.505Z,1.30
2018-01-15T07:26:52.986Z,1.40
2018-01-15T07:29:24.966Z,1.40
2018-01-15T07:31:57.204Z,1.50
2018-01-15T07:34:28.646Z,1.50
2018-01-15T07:37:01.005Z,1.60
2018-01-15T07:39:31.269Z,1.60
2018-01-15T07:42:02.945Z,1.70
2018-01-15T07:44:34.883Z,1.70
2018-01-15T07:47:06.497Z,1.70
2018-01-15T07:49:38.013Z,1.80
2018-01-15T07:52:09.077Z,1.80
2018-01-15T07:54:41.012Z,1.90
2018-01-15T07:57:12.493Z,1.80
2018-01-15T07:59:43.174Z,1.90
2018-01-15T08:02:15.960Z,2.00
2018-01-15T08:04:46.642Z,2.00
2018-01-15T08:07:17.872Z,2.00
2018-01-15T08:10:01.551Z,1.80
2018-01-15T08:12:33.331Z,1.90
2018-01-15T08:15:04.502Z,2.00
2018-01-15T08:17:35.584Z,1.90
2018-01-15T08:20:08.861Z,1.80
2018-01-15T08:23:07.672Z,1.80
2018-01-15T08:25:40.296Z,2.00
2018-01-15T08:28:19.804Z,2.10
2018-01-15T08:30:51.546Z,2.00
2018-01-15T08:33:43.176Z,2.20
2018-01-15T08:36:15.878Z,2.50
2018-01-15T08:38:46.812Z,2.50
2018-01-15T08:41:18.083Z,2.60
2018-01-15T08:43:59.583Z,2.80
2018-01-15T08:46:34.492Z,2.50
2018-01-15T08:49:10.484Z,2.60
2018-01-15T08:51:41.397Z,2.00
2018-01-15T08:54:13.420Z,1.40
2018-01-15T08:56:45.798Z,1.40
2018-01-15T08:59:17.366Z,1.20
2018-01-15T09:01:49.610Z,1.10
2018-01-15T09:04:20.682Z,1.00
2018-01-15T09:06:52.379Z,1.10
2018-01-15T09:09:23.081Z,0.90
2018-01-15T09:11:53.821Z,0.90
2018-01-15T09:14:28.751Z,0.90
2018-01-15T09:17:00.344Z,0.90
2018-01-15T09:19:31.541Z,1.20
2018-01-15T09:22:06.841Z,1.50
2018-01-15T09:24:37.185Z,1.80
2018-01-15T09:27:08.068Z,1.80
2018-01-15T09:29:39.225Z,1.80
2018-01-15T09:32:10.786Z,1.50
2018-01-15T09:34:41.661Z,1.50
2018-01-15T09:37:13.365Z,1.80
2018-01-15T09:39:54.205Z,2.30
2018-01-15T09:42:25.600Z,2.30
2018-01-15T09:44:56.320Z,2.40
2018-01-15T09:47:28.377Z,2.30
2018-01-15T09:50:02.841Z,1.80
2018-01-15T09:52:34.947Z,1.60
2018-01-15T09:55:06.520Z,1.60
2018-01-15T09:57:40.049Z,1.90
2018-01-15T10:00:13.332Z,2.00
2018-01-15T10:02:43.923Z,2.30
2018-01-15T10:05:14.768Z,2.70
2018-01-15T10:07:46.580Z,3.50
2018-01-15T10:10:20.961Z,3.40
2018-01-15T10:12:53.333Z,3.40
2018-01-15T10:15:23.981Z,3.30
2018-01-15T10:17:55.356Z,2.70
2018-01-15T10:20:26.818Z,2.70
2018-01-15T10:23:05.934Z,2.00
2018-01-15T10:25:37.214Z,2.00
2018-01-15T10:28:40.045Z,2.40
2018-01-15T10:31:10.658Z,2.90
2018-01-15T10:34:00.549Z,3.60
2018-01-15T10:36:34.385Z,4.00
2018-01-15T10:39:08.518Z,3.90
2018-01-15T10:42:02.863Z,3.70
2018-01-15T10:44:35.480Z,2.90
2018-01-15T10:48:08.850Z,2.90
2018-01-15T10:50:40.690Z,2.80
2018-01-15T10:53:34.675Z,2.80
2018-01-15T10:56:07.255Z,3.40
2018-01-15T10:58:38.251Z,3.30
2018-01-15T11:01:14.868Z,3.40
2018-01-15T11:03:46.943Z,3.70
2018-01-15T11:06:25.675Z,4.10
2018-01-15T11:08:57.164Z,4.30
2018-01-15T11:11:44.115Z,4.50
2018-01-15T11:14:34.250Z,4.70
2018-01-15T11:17:06.599Z,4.00
2018-01-15T11:19:47.974Z,4.00
2018-01-15T11:22:18.680Z,4.40
2018-01-15T11:25:35.024Z,4.60
2018-01-15T11:28:06.213Z,4.20
2018-01-15T11:30:38.174Z,3.80
2018-01-15T11:33:10.825Z,4.10
2018-01-15T11:35:42.854Z,4.20
2018-01-15T11:38:19.848Z,4.30
2018-01-15T11:40:51.364Z,4.60
2018-01-15T11:43:32.013Z,4.70
2018-01-15T11:46:02.511Z,4.70
2018-01-15T11:48:37.145Z,4.70
2018-01-15T11:51:18.005Z,4.60
2018-01-15T11:53:50.458Z,4.70
2018-01-15T11:56:21.371Z,5.20
2018-01-15T11:58:53.033Z,5.70
2018-01-15T12:01:24.032Z,5.70
2018-01-15T12:03:59.110Z,6.90
2018-01-15T12:06:37.130Z,7.50
2018-01-15T12:09:08.305Z,7.50
2018-01-15T12:11:59.266Z,8.60
2018-01-15T12:14:37.089Z,9.20
2018-01-15T12:17:08.967Z,7.60
2018-01-15T12:19:39.390Z,7.60
2018-01-15T12:22:11.286Z,9.50
2018-01-15T12:24:41.832Z,9.40
2018-01-15T12:27:12.236Z,8.60
2018-01-15T12:29:44.172Z,8.20
2018-01-15T12:32:15.237Z,8.00
2018-01-15T12:34:46.436Z,6.40
2018-01-15T12:37:17.187Z,6.30
2018-01-15T12:39:48.856Z,5.80
2018-01-15T12:42:26.288Z,4.70
2018-01-15T12:45:10.754Z,4.20
2018-01-15T12:47:44.065Z,5.30
2018-01-15T12:50:23.105Z,5.30
2018-01-15T12:52:55.356Z,6.60
2018-01-15T12:56:00.988Z,6.60
2018-01-15T12:58:32.167Z,5.70
2018-01-15T13:01:06.135Z,6.10
2018-01-15T13:03:38.124Z,7.10
2018-01-15T13:06:10.090Z,7.90
2018-01-15T13:08:48.389Z,7.80
2018-01-15T13:11:23.027Z,7.60
2018-01-15T13:14:39.302Z,9.20
2018-01-15T13:17:10.518Z,9.10
2018-01-15T13:20:17.348Z,9.40
2018-01-15T13:22:49.374Z,9.00
2018-01-15T13:25:21.913Z,9.00
2018-01-15T13:27:52.648Z,8.30
2018-01-15T13:30:23.287Z,7.30
2018-01-15T13:32:54.564Z,6.20
2018-01-15T13:35:27.985Z,6.20
2018-01-15T13:37:59.838Z,5.90
2018-01-15T13:40:37.148Z,6.00
2018-01-15T13:43:12.807Z,5.60
2018-01-15T13:45:45.174Z,4.80
2018-01-15T13:48:17.885Z,4.80
2018-01-15T13:50:50.110Z,5.00
2018-01-15T13:53:27.357Z,5.10
2018-01-15T13:56:15.018Z,5.10
2018-01-15T13:59:22.662Z,5.20
2018-01-15T14:01:54.099Z,5.00
2018-01-15T14:04:28.482Z,5.10
2018-01-15T14:07:29.730Z,4.90
2018-01-15T14:10:01.410Z,4.90
2018-01-15T14:12:32.120Z,4.90
2018-01-15T14:15:03.208Z,5.00
2018-01-15T14:17:33.788Z,5.00
2018-01-15T14:20:05.186Z,5.00
2018-01-15T14:22:36.228Z,4.90
2018-01-15T14:25:25.203Z,5.00
2018-01-15T14:27:58.113Z,5.00
2018-01-15T14:30:28.407Z,5.00
2018-01-15T14:33:00.543Z,4.90
2018-01-15T14:35:36.674Z,4.90
2018-01-15T14:38:12.821Z,4.80
2018-01-15T14:40:45.194Z,4.70
2018-01-15T14:43:48.527Z,4.60
2018-01-15T14:46:20.424Z,4.30
2018-01-15T14:48:58.659Z,4.00
2018-01-15T14:51:31.103Z,4.00
2018-01-15T14:54:49.789Z,3.90
2018-01-15T15:00:05.121Z,3.90
2018-01-15T15:02:36.714Z,3.70
2018-01-15T15:05:12.541Z,3.70
2018-01-15T15:07:43.974Z,3.60
2018-01-15T15:10:16.351Z,3.60
2018-01-15T15:12:47.364Z,3.40
2018-01-15T15:15:20.922Z,3.20
2018-01-15T15:17:53.980Z,3.20
2018-01-15T15:20:26.299Z,3.10
2018-01-15T15:23:26.856Z,3.20
2018-01-15T15:25:58.543Z,2.50
2018-01-15T15:28:29.268Z,2.40
2018-01-15T15:31:04.488Z,2.30
2018-01-15T15:33:48.276Z,2.20
2018-01-15T15:36:23.386Z,2.10
2018-01-15T15:38:57.786Z,2.20
2018-01-15T15:41:29.436Z,2.10
2018-01-15T15:44:01.603Z,2.10
2018-01-15T15:46:36.301Z,2.40
2018-01-15T15:49:07.512Z,2.50
2018-01-15T15:51:41.818Z,2.40
2018-01-15T15:54:18.833Z,2.40
2018-01-15T15:56:49.788Z,2.20
2018-01-15T15:59:22.689Z,2.20
2018-01-15T16:01:54.093Z,2.10
2018-01-15T16:04:54.094Z,2.10
2018-01-15T16:07:29.774Z,2.00
2018-01-15T16:10:07.362Z,1.90
2018-01-15T16:12:58.794Z,1.70
2018-01-15T16:16:08.959Z,1.60
2018-01-15T16:18:41.711Z,1.60
2018-01-15T16:21:14.584Z,1.70
2018-01-15T16:23:51.250Z,1.80
2018-01-15T16:30:06.954Z,2.00
2018-01-15T16:32:40.020Z,1.60
2018-01-15T16:35:11.119Z,1.60
2018-01-15T16:37:45.260Z,1.60
2018-01-15T16:40:16.041Z,1.50
2018-01-15T16:42:52.123Z,1.60
2018-01-15T16:45:23.559Z,1.60
2018-01-15T16:48:00.789Z,1.70
2018-01-15T16:50:40.136Z,1.60
2018-01-15T16:53:11.167Z,1.60
2018-01-15T16:55:44.495Z,1.50
2018-01-15T16:58:15.843Z,1.60
2018-01-15T17:00:51.132Z,1.60
2018-01-15T17:03:34.026Z,1.40
2018-01-15T17:06:04.496Z,1.40
2018-01-15T17:08:39.170Z,1.40
2018-01-15T17:11:14.703Z,1.60
2018-01-15T17:13:50.836Z,1.70
2018-01-15T17:16:24.532Z,1.70
2018-01-15T17:22:07.040Z,1.60
2018-01-15T17:24:37.727Z,1.70
2018-01-15T17:27:10.062Z,1.80
2018-01-15T17:29:40.667Z,1.90
2018-01-15T17:32:25.932Z,1.90
2018-01-15T17:35:01.443Z,1.90
2018-01-15T17:37:45.214Z,1.90
2018-01-15T17:40:46.614Z,1.90
2018-01-15T17:44:01.851Z,1.70
2018-01-15T17:46:33.548Z,1.70
2018-01-15T17:49:04.389Z,1.60
2018-01-15T17:51:38.391Z,1.70
2018-01-15T17:54:11.040Z,1.70
2018-01-15T17:56:47.528Z,1.70
2018-01-15T17:59:44.180Z,1.70
2018-01-15T18:02:15.639Z,2.00
2018-01-15T18:04:46.877Z,2.00
2018-01-15T18:07:42.377Z,2.10
2018-01-15T18:10:25.126Z,2.10
2018-01-15T18:12:56.101Z,1.90
2018-01-15T18:15:26.346Z,1.90
2018-01-15T18:17:57.351Z,1.80
2018-01-15T18:20:27.623Z,1.70
2018-01-15T18:23:01.626Z,1.90
2018-01-15T18:25:32.709Z,2.00
2018-01-15T18:28:03.357Z,2.10
2018-01-15T18:30:41.885Z,2.10
2018-01-15T18:33:17.096Z,2.10
2018-01-15T18:35:50.065Z,2.20
2018-01-15T18:38:21.579Z,2.20
2018-01-15T18:40:53.570Z,2.20
2018-01-15T18:43:25.402Z,2.20
2018-01-15T18:45:56.977Z,2.20
2018-01-15T18:48:29.500Z,2.30
2018-01-15T18:51:00.769Z,2.40
2018-01-15T18:53:32.192Z,2.50
2018-01-15T18:56:03.698Z,2.60
2018-01-15T18:58:35.656Z,2.50
2018-01-15T19:01:07.285Z,2.50
2018-01-15T19:03:37.470Z,2.50
2018-01-15T19:06:08.653Z,2.50
2018-01-15T19:08:42.379Z,2.50
2018-01-15T19:11:14.388Z,2.50
2018-01-15T19:13:46.060Z,2.50
2018-01-15T19:16:17.437Z,2.50
2018-01-15T19:18:48.965Z,2.60
2018-01-15T19:21:22.572Z,2.50
2018-01-15T19:23:58.201Z,2.60
2018-01-15T19:26:28.698Z,2.60
2018-01-15T19:29:30.840Z,2.60
2018-01-15T19:32:01.614Z,2.60
2018-01-15T19:34:31.878Z,2.40
2018-01-15T19:37:04.587Z,2.20
2018-01-15T19:39:35.499Z,2.20
2018-01-15T19:42:08.808Z,2.30
2018-01-15T19:44:44.084Z,2.30
2018-01-15T19:49:21.766Z,2.50
2018-01-15T19:54:02.912Z,2.60
2018-01-15T19:58:42.353Z,2.70
2018-01-15T20:03:19.341Z,2.70
2018-01-15T20:08:00.485Z,2.70
2018-01-15T20:10:48.229Z,2.70
2018-01-15T20:13:18.921Z,2.70
2018-01-15T20:15:50.580Z,2.70
2018-01-15T20:18:21.999Z,2.70
2018-01-15T20:20:53.540Z,2.80
2018-01-15T20:23:24.232Z,2.80
2018-01-15T20:25:55.192Z,2.80
2018-01-15T20:28:25.570Z,2.90
2018-01-15T20:30:56.106Z,2.90
2018-01-15T20:33:27.086Z,3.00
2018-01-15T20:35:57.349Z,3.00
2018-01-15T20:38:27.534Z,3.00
2018-01-15T20:40:58.408Z,3.00
2018-01-15T20:43:29.975Z,3.10
2018-01-15T20:46:01.489Z,3.10
2018-01-15T20:48:48.181Z,3.10
2018-01-15T20:51:18.876Z,3.10
2018-01-15T20:53:49.125Z,2.90
2018-01-15T20:56:20.349Z,2.90
2018-01-15T20:58:50.656Z,2.90
2018-01-15T21:01:35.431Z,3.00
2018-01-15T21:04:07.073Z,3.10
2018-01-15T21:06:37.297Z,3.10
2018-01-15T21:09:10.787Z,3.20
2018-01-15T21:11:42.747Z,3.10
2018-01-15T21:14:13.556Z,3.10
2018-01-15T21:16:46.172Z,3.20
2018-01-15T21:19:16.977Z,3.20
2018-01-15T21:21:47.562Z,3.40
2018-01-15T21:24:18.839Z,3.60
2018-01-15T21:26:50.100Z,3.60
2018-01-15T21:29:22.355Z,3.60
2018-01-15T21:31:54.145Z,3.70
2018-01-15T21:34:25.125Z,3.70
2018-01-15T21:36:55.404Z,3.70
2018-01-15T21:39:26.120Z,3.70
2018-01-15T21:41:57.820Z,3.60
2018-01-15T21:45:53.005Z,3.60
2018-01-15T21:48:23.869Z,3.70
2018-01-15T21:50:54.700Z,3.90
2018-01-15T21:53:25.624Z,4.00
2018-01-15T21:55:56.420Z,4.10
2018-01-15T21:58:27.423Z,4.20
2018-01-15T22:00:58.161Z,4.20
2018-01-15T22:03:29.063Z,4.20
2018-01-15T22:05:59.612Z,4.20
2018-01-15T22:08:31.531Z,4.30
2018-01-15T22:11:03.077Z,4.30
2018-01-15T22:13:34.568Z,4.30
2018-01-15T22:16:04.853Z,4.30
2018-01-15T22:18:36.101Z,4.20
2018-01-15T22:21:06.371Z,4.20
2018-01-15T22:23:37.113Z,4.20
2018-01-15T22:26:08.226Z,4.20
2018-01-15T22:28:38.481Z,4.20
2018-01-15T22:31:10.935Z,4.30
2018-01-15T22:33:44.479Z,4.30
2018-01-15T22:36:15.167Z,4.30
2018-01-15T22:38:45.507Z,4.30
2018-01-15T22:41:16.672Z,4.40
2018-01-15T22:43:47.306Z,4.40
2018-01-15T22:46:17.550Z,4.40
2018-01-15T22:48:48.738Z,4.40
2018-01-15T22:51:19.798Z,4.60
2018-01-15T22:53:50.494Z,4.70
2018-01-15T22:56:21.627Z,4.50
2018-01-15T22:58:53.325Z,4.50
2018-01-15T23:01:24.745Z,4.50
2018-01-15T23:03:55.228Z,4.50
2018-01-15T23:06:26.361Z,4.50
2018-01-15T23:08:57.785Z,4.60
2018-01-15T23:11:28.621Z,4.60
2018-01-15T23:14:00.161Z,4.60
2018-01-15T23:16:31.731Z,4.60
2018-01-15T23:19:03.472Z,4.60
2018-01-15T23:21:34.133Z,4.60
2018-01-15T23:24:05.583Z,4.70
2018-01-15T23:26:36.776Z,4.70
2018-01-15T23:29:10.127Z,4.70
2018-01-15T23:31:40.743Z,4.70
2018-01-15T23:34:11.149Z,4.80
2018-01-15T23:36:42.820Z,4.90
2018-01-15T23:39:13.912Z,4.90
2018-01-15T23:41:46.386Z,4.90
2018-01-15T23:44:17.312Z,4.90
2018-01-15T23:46:48.691Z,4.90
2018-01-15T23:49:20.689Z,4.90
2018-01-15T23:51:51.301Z,4.90
2018-01-15T23:54:30.853Z,5.00
2018-01-15T23:57:01.461Z,5.00
2018-01-15T23:59:32.629Z,5.10
